sensor_id;sensor_type;location;lat;lon;timestamp;temperature;humidity
59973;DHT22;55298;-36.624;-64.282;2023-05-10T00:01:11;15.80;73.70
59973;DHT22;55298;-36.624;-64.282;2023-05-10T00:03:45;15.70;74.20
59973;DHT22;55298;-36.624;-64.282;2023-05-10T00:06:14;15.70;74.90
59973;DHT22;55298;-36.624;-64.282;2023-05-10T00:08:41;15.60;75.20
59973;DHT22;55298;-36.624;-64.282;2023-05-10T00:11:09;15.50;75.20
59973;DHT22;55298;-36.624;-64.282;2023-05-10T00:13:37;15.50;75.60
59973;DHT22;55298;-36.624;-64.282;2023-05-10T00:16:07;15.50;75.70
59973;DHT22;55298;-36.624;-64.282;2023-05-10T00:18:35;15.40;75.90
59973;DHT22;55298;-36.624;-64.282;2023-05-10T00:21:02;15.30;76.10
59973;DHT22;55298;-36.624;-64.282;2023-05-10T00:23:31;15.30;76.30
59973;DHT22;55298;-36.624;-64.282;2023-05-10T00:25:59;15.30;76.60
59973;DHT22;55298;-36.624;-64.282;2023-05-10T00:28:28;15.20;76.60
59973;DHT22;55298;-36.624;-64.282;2023-05-10T00:30:56;15.30;76.50
59973;DHT22;55298;-36.624;-64.282;2023-05-10T00:33:24;15.20;76.50
59973;DHT22;55298;-36.624;-64.282;2023-05-10T00:35:52;15.10;76.80
59973;DHT22;55298;-36.624;-64.282;2023-05-10T00:38:20;15.10;76.90
59973;DHT22;55298;-36.624;-64.282;2023-05-10T00:40:48;15.00;77.50
59973;DHT22;55298;-36.624;-64.282;2023-05-10T00:43:16;14.90;77.60
59973;DHT22;55298;-36.624;-64.282;2023-05-10T00:45:44;14.90;78.00
59973;DHT22;55298;-36.624;-64.282;2023-05-10T00:48:13;14.80;78.80
59973;DHT22;55298;-36.624;-64.282;2023-05-10T00:50:41;14.80;79.20
59973;DHT22;55298;-36.624;-64.282;2023-05-10T00:53:12;14.70;80.40
59973;DHT22;55298;-36.624;-64.282;2023-05-10T00:55:43;14.60;80.80
59973;DHT22;55298;-36.624;-64.282;2023-05-10T00:58:12;14.50;81.50
59973;DHT22;55298;-36.624;-64.282;2023-05-10T01:00:42;14.50;82.00
59973;DHT22;55298;-36.624;-64.282;2023-05-10T01:03:11;14.50;81.90
59973;DHT22;55298;-36.624;-64.282;2023-05-10T01:05:39;14.50;82.40
59973;DHT22;55298;-36.624;-64.282;2023-05-10T01:08:08;14.40;82.20
59973;DHT22;55298;-36.624;-64.282;2023-05-10T01:10:35;14.40;82.30
59973;DHT22;55298;-36.624;-64.282;2023-05-10T01:13:03;14.30;82.90
59973;DHT22;55298;-36.624;-64.282;2023-05-10T01:15:32;14.30;82.60
59973;DHT22;55298;-36.624;-64.282;2023-05-10T01:18:00;14.30;83.30
59973;DHT22;55298;-36.624;-64.282;2023-05-10T01:20:35;14.20;83.30
59973;DHT22;55298;-36.624;-64.282;2023-05-10T01:23:36;14.20;84.50
59973;DHT22;55298;-36.624;-64.282;2023-05-10T01:26:25;14.10;85.30
59973;DHT22;55298;-36.624;-64.282;2023-05-10T01:32:14;14.10;86.30
59973;DHT22;55298;-36.624;-64.282;2023-05-10T01:35:03;13.90;86.70
59973;DHT22;55298;-36.624;-64.282;2023-05-10T01:38:04;13.90;86.90
59973;DHT22;55298;-36.624;-64.282;2023-05-10T01:40:46;13.80;87.70
59973;DHT22;55298;-36.624;-64.282;2023-05-10T01:43:26;13.80;87.90
59973;DHT22;55298;-36.624;-64.282;2023-05-10T01:46:05;13.90;88.30
59973;DHT22;55298;-36.624;-64.282;2023-05-10T01:48:42;13.70;88.40
59973;DHT22;55298;-36.624;-64.282;2023-05-10T01:51:22;13.70;87.70
59973;DHT22;55298;-36.624;-64.282;2023-05-10T01:54:00;13.70;87.70
59973;DHT22;55298;-36.624;-64.282;2023-05-10T01:56:32;13.70;87.60
59973;DHT22;55298;-36.624;-64.282;2023-05-10T01:59:02;13.80;87.70
59973;DHT22;55298;-36.624;-64.282;2023-05-10T02:01:32;13.60;89.00
59973;DHT22;55298;-36.624;-64.282;2023-05-10T02:04:02;13.60;89.90
59973;DHT22;55298;-36.624;-64.282;2023-05-10T02:06:31;13.60;89.90
59973;DHT22;55298;-36.624;-64.282;2023-05-10T02:09:01;13.50;87.80
59973;DHT22;55298;-36.624;-64.282;2023-05-10T02:11:32;13.50;87.10
59973;DHT22;55298;-36.624;-64.282;2023-05-10T02:14:01;13.60;86.80
59973;DHT22;55298;-36.624;-64.282;2023-05-10T02:16:30;13.60;86.80
59973;DHT22;55298;-36.624;-64.282;2023-05-10T02:19:00;13.50;87.20
59973;DHT22;55298;-36.624;-64.282;2023-05-10T02:21:30;13.50;86.30
59973;DHT22;55298;-36.624;-64.282;2023-05-10T02:24:00;13.50;85.80
59973;DHT22;55298;-36.624;-64.282;2023-05-10T02:26:30;13.50;85.50
59973;DHT22;55298;-36.624;-64.282;2023-05-10T02:28:59;13.40;87.10
59973;DHT22;55298;-36.624;-64.282;2023-05-10T02:31:31;13.40;86.90
59973;DHT22;55298;-36.624;-64.282;2023-05-10T02:34:01;13.40;86.70
59973;DHT22;55298;-36.624;-64.282;2023-05-10T02:36:30;13.30;87.20
59973;DHT22;55298;-36.624;-64.282;2023-05-10T02:38:59;13.40;88.00
59973;DHT22;55298;-36.624;-64.282;2023-05-10T02:41:30;13.30;88.40
59973;DHT22;55298;-36.624;-64.282;2023-05-10T02:44:03;13.20;88.50
59973;DHT22;55298;-36.624;-64.282;2023-05-10T02:46:34;13.20;87.20
59973;DHT22;55298;-36.624;-64.282;2023-05-10T02:49:04;13.20;89.40
59973;DHT22;55298;-36.624;-64.282;2023-05-10T02:51:34;13.10;88.90
59973;DHT22;55298;-36.624;-64.282;2023-05-10T02:54:11;13.00;89.30
59973;DHT22;55298;-36.624;-64.282;2023-05-10T02:56:46;13.00;89.60
59973;DHT22;55298;-36.624;-64.282;2023-05-10T02:59:14;12.80;89.40
59973;DHT22;55298;-36.624;-64.282;2023-05-10T03:01:42;12.90;89.70
59973;DHT22;55298;-36.624;-64.282;2023-05-10T03:04:10;12.80;90.10
59973;DHT22;55298;-36.624;-64.282;2023-05-10T03:06:38;12.70;89.40
59973;DHT22;55298;-36.624;-64.282;2023-05-10T03:09:06;12.70;88.60
59973;DHT22;55298;-36.624;-64.282;2023-05-10T03:14:52;12.60;89.50
59973;DHT22;55298;-36.624;-64.282;2023-05-10T03:20:47;12.50;91.20
59973;DHT22;55298;-36.624;-64.282;2023-05-10T03:23:26;12.40;90.60
59973;DHT22;55298;-36.624;-64.282;2023-05-10T03:25:55;12.30;91.00
59973;DHT22;55298;-36.624;-64.282;2023-05-10T03:28:25;12.30;90.70
59973;DHT22;55298;-36.624;-64.282;2023-05-10T03:30:54;12.30;90.30
59973;DHT22;55298;-36.624;-64.282;2023-05-10T03:33:23;12.30;90.30
59973;DHT22;55298;-36.624;-64.282;2023-05-10T03:35:51;12.20;90.10
59973;DHT22;55298;-36.624;-64.282;2023-05-10T03:38:19;12.20;90.10
59973;DHT22;55298;-36.624;-64.282;2023-05-10T03:40:47;12.20;90.40
59973;DHT22;55298;-36.624;-64.282;2023-05-10T03:43:14;12.10;90.50
59973;DHT22;55298;-36.624;-64.282;2023-05-10T03:45:42;12.10;90.30
59973;DHT22;55298;-36.624;-64.282;2023-05-10T03:48:10;12.10;90.70
59973;DHT22;55298;-36.624;-64.282;2023-05-10T03:50:40;12.00;90.90
59973;DHT22;55298;-36.624;-64.282;2023-05-10T03:53:07;12.10;91.10
59973;DHT22;55298;-36.624;-64.282;2023-05-10T03:55:35;12.00;90.50
59973;DHT22;55298;-36.624;-64.282;2023-05-10T03:58:03;12.00;90.40
59973;DHT22;55298;-36.624;-64.282;2023-05-10T04:00:31;12.00;90.70
59973;DHT22;55298;-36.624;-64.282;2023-05-10T04:02:59;12.00;90.80
59973;DHT22;55298;-36.624;-64.282;2023-05-10T04:05:27;12.10;91.10
59973;DHT22;55298;-36.624;-64.282;2023-05-10T04:07:55;12.10;91.10
59973;DHT22;55298;-36.624;-64.282;2023-05-10T04:10:23;12.10;91.10
59973;DHT22;55298;-36.624;-64.282;2023-05-10T04:12:50;12.00;90.80
59973;DHT22;55298;-36.624;-64.282;2023-05-10T04:15:18;12.00;91.40
59973;DHT22;55298;-36.624;-64.282;2023-05-10T04:17:46;12.00;91.10
59973;DHT22;55298;-36.624;-64.282;2023-05-10T04:20:14;11.90;91.30
59973;DHT22;55298;-36.624;-64.282;2023-05-10T04:22:42;12.00;90.90
59973;DHT22;55298;-36.624;-64.282;2023-05-10T04:25:10;11.90;90.70
59973;DHT22;55298;-36.624;-64.282;2023-05-10T04:27:38;11.90;91.50
59973;DHT22;55298;-36.624;-64.282;2023-05-10T04:30:06;11.90;91.20
59973;DHT22;55298;-36.624;-64.282;2023-05-10T04:32:34;11.90;91.00
59973;DHT22;55298;-36.624;-64.282;2023-05-10T04:35:02;11.90;91.40
59973;DHT22;55298;-36.624;-64.282;2023-05-10T04:37:31;11.90;91.10
59973;DHT22;55298;-36.624;-64.282;2023-05-10T04:39:59;11.90;91.30
59973;DHT22;55298;-36.624;-64.282;2023-05-10T04:42:26;11.80;91.60
59973;DHT22;55298;-36.624;-64.282;2023-05-10T04:44:54;11.90;92.00
59973;DHT22;55298;-36.624;-64.282;2023-05-10T04:47:22;11.80;92.20
59973;DHT22;55298;-36.624;-64.282;2023-05-10T04:49:50;11.80;92.30
59973;DHT22;55298;-36.624;-64.282;2023-05-10T04:52:17;11.80;91.80
59973;DHT22;55298;-36.624;-64.282;2023-05-10T04:54:45;11.70;91.00
59973;DHT22;55298;-36.624;-64.282;2023-05-10T04:57:13;11.70;91.30
59973;DHT22;55298;-36.624;-64.282;2023-05-10T04:59:41;11.70;91.80
59973;DHT22;55298;-36.624;-64.282;2023-05-10T05:02:09;11.70;92.00
59973;DHT22;55298;-36.624;-64.282;2023-05-10T05:04:37;11.80;92.00
59973;DHT22;55298;-36.624;-64.282;2023-05-10T05:07:04;11.70;91.90
59973;DHT22;55298;-36.624;-64.282;2023-05-10T05:09:32;11.60;91.90
59973;DHT22;55298;-36.624;-64.282;2023-05-10T05:12:00;11.60;91.80
59973;DHT22;55298;-36.624;-64.282;2023-05-10T05:14:28;11.50;91.60
59973;DHT22;55298;-36.624;-64.282;2023-05-10T05:16:56;11.50;91.30
59973;DHT22;55298;-36.624;-64.282;2023-05-10T05:19:24;11.50;91.40
59973;DHT22;55298;-36.624;-64.282;2023-05-10T05:21:51;11.40;91.30
59973;DHT22;55298;-36.624;-64.282;2023-05-10T05:24:19;11.40;91.90
59973;DHT22;55298;-36.624;-64.282;2023-05-10T05:26:47;11.30;91.70
59973;DHT22;55298;-36.624;-64.282;2023-05-10T05:29:15;11.30;91.80
59973;DHT22;55298;-36.624;-64.282;2023-05-10T05:31:43;11.20;92.00
59973;DHT22;55298;-36.624;-64.282;2023-05-10T05:34:11;11.20;93.10
59973;DHT22;55298;-36.624;-64.282;2023-05-10T05:36:38;11.10;93.50
59973;DHT22;55298;-36.624;-64.282;2023-05-10T05:39:06;11.10;93.40
59973;DHT22;55298;-36.624;-64.282;2023-05-10T05:41:34;11.00;93.80
59973;DHT22;55298;-36.624;-64.282;2023-05-10T05:44:02;10.90;94.10
59973;DHT22;55298;-36.624;-64.282;2023-05-10T05:46:29;11.00;93.80
59973;DHT22;55298;-36.624;-64.282;2023-05-10T05:48:57;10.90;93.60
59973;DHT22;55298;-36.624;-64.282;2023-05-10T05:51:25;11.00;93.50
59973;DHT22;55298;-36.624;-64.282;2023-05-10T05:53:53;10.90;93.30
59973;DHT22;55298;-36.624;-64.282;2023-05-10T05:56:20;10.90;93.00
59973;DHT22;55298;-36.624;-64.282;2023-05-10T05:58:51;10.90;92.70
59973;DHT22;55298;-36.624;-64.282;2023-05-10T06:01:19;10.90;91.90
59973;DHT22;55298;-36.624;-64.282;2023-05-10T06:03:47;10.80;92.10
59973;DHT22;55298;-36.624;-64.282;2023-05-10T06:06:14;10.80;92.10
59973;DHT22;55298;-36.624;-64.282;2023-05-10T06:08:42;10.80;91.90
59973;DHT22;55298;-36.624;-64.282;2023-05-10T06:11:10;10.70;91.60
59973;DHT22;55298;-36.624;-64.282;2023-05-10T06:13:37;10.70;91.40
59973;DHT22;55298;-36.624;-64.282;2023-05-10T06:16:05;10.70;91.30
59973;DHT22;55298;-36.624;-64.282;2023-05-10T06:18:33;10.70;91.70
59973;DHT22;55298;-36.624;-64.282;2023-05-10T06:21:01;10.80;91.60
59973;DHT22;55298;-36.624;-64.282;2023-05-10T06:23:29;10.80;91.40
59973;DHT22;55298;-36.624;-64.282;2023-05-10T06:25:56;10.70;91.20
59973;DHT22;55298;-36.624;-64.282;2023-05-10T06:28:24;10.70;91.40
59973;DHT22;55298;-36.624;-64.282;2023-05-10T06:30:52;10.80;91.10
59973;DHT22;55298;-36.624;-64.282;2023-05-10T06:33:20;10.70;91.10
59973;DHT22;55298;-36.624;-64.282;2023-05-10T06:35:48;10.70;91.00
59973;DHT22;55298;-36.624;-64.282;2023-05-10T06:38:19;10.70;90.80
59973;DHT22;55298;-36.624;-64.282;2023-05-10T06:40:47;10.70;90.60
59973;DHT22;55298;-36.624;-64.282;2023-05-10T06:43:14;10.70;90.60
59973;DHT22;55298;-36.624;-64.282;2023-05-10T06:45:42;10.60;90.40
59973;DHT22;55298;-36.624;-64.282;2023-05-10T06:48:10;10.60;90.30
59973;DHT22;55298;-36.624;-64.282;2023-05-10T06:50:37;10.60;90.50
59973;DHT22;55298;-36.624;-64.282;2023-05-10T06:53:05;10.60;90.00
59973;DHT22;55298;-36.624;-64.282;2023-05-10T06:55:33;10.50;90.20
59973;DHT22;55298;-36.624;-64.282;2023-05-10T06:58:00;10.50;90.20
59973;DHT22;55298;-36.624;-64.282;2023-05-10T07:00:28;10.50;90.20
59973;DHT22;55298;-36.624;-64.282;2023-05-10T07:02:56;10.50;90.00
59973;DHT22;55298;-36.624;-64.282;2023-05-10T07:05:25;10.50;90.10
59973;DHT22;55298;-36.624;-64.282;2023-05-10T07:07:54;10.40;90.30
59973;DHT22;55298;-36.624;-64.282;2023-05-10T07:10:22;10.40;90.10
59973;DHT22;55298;-36.624;-64.282;2023-05-10T07:12:49;10.30;90.60
59973;DHT22;55298;-36.624;-64.282;2023-05-10T07:15:17;10.30;90.40
59973;DHT22;55298;-36.624;-64.282;2023-05-10T07:17:45;10.30;90.60
59973;DHT22;55298;-36.624;-64.282;2023-05-10T07:20:13;10.30;90.50
59973;DHT22;55298;-36.624;-64.282;2023-05-10T07:22:41;10.20;90.40
59973;DHT22;55298;-36.624;-64.282;2023-05-10T07:25:09;10.30;90.40
59973;DHT22;55298;-36.624;-64.282;2023-05-10T07:27:37;10.30;90.30
59973;DHT22;55298;-36.624;-64.282;2023-05-10T07:30:05;10.20;90.10
59973;DHT22;55298;-36.624;-64.282;2023-05-10T07:32:33;10.20;90.30
59973;DHT22;55298;-36.624;-64.282;2023-05-10T07:35:01;10.20;90.20
59973;DHT22;55298;-36.624;-64.282;2023-05-10T07:37:30;10.20;90.40
59973;DHT22;55298;-36.624;-64.282;2023-05-10T07:39:57;10.20;90.30
59973;DHT22;55298;-36.624;-64.282;2023-05-10T07:42:25;10.20;90.40
59973;DHT22;55298;-36.624;-64.282;2023-05-10T07:44:53;10.20;89.70
59973;DHT22;55298;-36.624;-64.282;2023-05-10T07:47:21;10.20;89.70
59973;DHT22;55298;-36.624;-64.282;2023-05-10T07:49:49;10.30;90.50
59973;DHT22;55298;-36.624;-64.282;2023-05-10T07:52:16;10.30;90.00
59973;DHT22;55298;-36.624;-64.282;2023-05-10T07:54:44;10.20;89.80
59973;DHT22;55298;-36.624;-64.282;2023-05-10T07:57:12;10.20;90.20
59973;DHT22;55298;-36.624;-64.282;2023-05-10T07:59:42;10.30;90.30
59973;DHT22;55298;-36.624;-64.282;2023-05-10T08:02:10;10.20;90.10
59973;DHT22;55298;-36.624;-64.282;2023-05-10T08:04:38;10.20;90.20
59973;DHT22;55298;-36.624;-64.282;2023-05-10T08:07:06;10.20;90.10
59973;DHT22;55298;-36.624;-64.282;2023-05-10T08:09:34;10.20;90.10
59973;DHT22;55298;-36.624;-64.282;2023-05-10T08:12:01;10.10;89.70
59973;DHT22;55298;-36.624;-64.282;2023-05-10T08:14:30;10.10;90.10
59973;DHT22;55298;-36.624;-64.282;2023-05-10T08:16:58;10.10;89.40
59973;DHT22;55298;-36.624;-64.282;2023-05-10T08:19:26;10.10;90.00
59973;DHT22;55298;-36.624;-64.282;2023-05-10T08:21:53;10.10;90.20
59973;DHT22;55298;-36.624;-64.282;2023-05-10T08:24:22;10.00;90.30
59973;DHT22;55298;-36.624;-64.282;2023-05-10T08:26:50;9.90;90.50
59973;DHT22;55298;-36.624;-64.282;2023-05-10T08:29:18;10.00;90.60
59973;DHT22;55298;-36.624;-64.282;2023-05-10T08:31:45;10.00;90.40
59973;DHT22;55298;-36.624;-64.282;2023-05-10T08:34:13;9.90;90.00
59973;DHT22;55298;-36.624;-64.282;2023-05-10T08:36:42;9.90;90.30
59973;DHT22;55298;-36.624;-64.282;2023-05-10T08:39:09;9.80;90.40
59973;DHT22;55298;-36.624;-64.282;2023-05-10T08:41:39;9.80;90.70
59973;DHT22;55298;-36.624;-64.282;2023-05-10T08:44:11;9.80;90.40
59973;DHT22;55298;-36.624;-64.282;2023-05-10T08:46:42;9.80;90.80
59973;DHT22;55298;-36.624;-64.282;2023-05-10T08:49:15;9.80;91.20
59973;DHT22;55298;-36.624;-64.282;2023-05-10T08:51:49;9.80;91.40
59973;DHT22;55298;-36.624;-64.282;2023-05-10T08:54:18;9.70;91.50
59973;DHT22;55298;-36.624;-64.282;2023-05-10T08:56:46;9.70;91.60
59973;DHT22;55298;-36.624;-64.282;2023-05-10T08:59:14;9.70;91.50
59973;DHT22;55298;-36.624;-64.282;2023-05-10T09:01:43;9.70;91.60
59973;DHT22;55298;-36.624;-64.282;2023-05-10T09:04:13;9.70;91.30
59973;DHT22;55298;-36.624;-64.282;2023-05-10T09:06:41;9.70;91.20
59973;DHT22;55298;-36.624;-64.282;2023-05-10T09:09:09;9.70;91.30
59973;DHT22;55298;-36.624;-64.282;2023-05-10T09:11:37;9.70;91.20
59973;DHT22;55298;-36.624;-64.282;2023-05-10T09:14:05;9.60;91.00
59973;DHT22;55298;-36.624;-64.282;2023-05-10T09:16:35;9.60;91.00
59973;DHT22;55298;-36.624;-64.282;2023-05-10T09:19:03;9.60;91.30
59973;DHT22;55298;-36.624;-64.282;2023-05-10T09:21:31;9.60;91.40
59973;DHT22;55298;-36.624;-64.282;2023-05-10T09:24:03;9.50;91.50
59973;DHT22;55298;-36.624;-64.282;2023-05-10T09:26:32;9.50;91.40
59973;DHT22;55298;-36.624;-64.282;2023-05-10T09:29:00;9.50;91.70
59973;DHT22;55298;-36.624;-64.282;2023-05-10T09:31:47;9.50;91.70
59973;DHT22;55298;-36.624;-64.282;2023-05-10T09:34:28;9.50;91.70
59973;DHT22;55298;-36.624;-64.282;2023-05-10T09:36:58;9.40;91.50
59973;DHT22;55298;-36.624;-64.282;2023-05-10T09:39:36;9.40;91.80
59973;DHT22;55298;-36.624;-64.282;2023-05-10T09:42:06;9.40;91.50
59973;DHT22;55298;-36.624;-64.282;2023-05-10T09:44:35;9.30;91.50
59973;DHT22;55298;-36.624;-64.282;2023-05-10T09:47:03;9.30;91.70
59973;DHT22;55298;-36.624;-64.282;2023-05-10T09:49:31;9.40;91.80
59973;DHT22;55298;-36.624;-64.282;2023-05-10T09:52:07;9.40;91.90
59973;DHT22;55298;-36.624;-64.282;2023-05-10T09:54:35;9.30;91.70
59973;DHT22;55298;-36.624;-64.282;2023-05-10T09:57:03;9.30;92.10
59973;DHT22;55298;-36.624;-64.282;2023-05-10T09:59:33;9.30;92.00
59973;DHT22;55298;-36.624;-64.282;2023-05-10T10:02:02;9.30;92.40
59973;DHT22;55298;-36.624;-64.282;2023-05-10T10:04:30;9.30;92.20
59973;DHT22;55298;-36.624;-64.282;2023-05-10T10:07:03;9.20;92.30
59973;DHT22;55298;-36.624;-64.282;2023-05-10T10:09:33;9.30;92.80
59973;DHT22;55298;-36.624;-64.282;2023-05-10T10:12:02;9.30;92.70
59973;DHT22;55298;-36.624;-64.282;2023-05-10T10:14:31;9.30;92.70
59973;DHT22;55298;-36.624;-64.282;2023-05-10T10:17:01;9.30;92.60
59973;DHT22;55298;-36.624;-64.282;2023-05-10T10:19:28;9.30;92.50
59973;DHT22;55298;-36.624;-64.282;2023-05-10T10:21:57;9.30;92.50
59973;DHT22;55298;-36.624;-64.282;2023-05-10T10:24:25;9.30;92.80
59973;DHT22;55298;-36.624;-64.282;2023-05-10T10:27:04;9.30;93.00
59973;DHT22;55298;-36.624;-64.282;2023-05-10T10:30:04;9.30;92.60
59973;DHT22;55298;-36.624;-64.282;2023-05-10T10:33:01;9.30;92.30
59973;DHT22;55298;-36.624;-64.282;2023-05-10T10:35:35;9.20;92.50
59973;DHT22;55298;-36.624;-64.282;2023-05-10T10:38:04;9.20;92.20
59973;DHT22;55298;-36.624;-64.282;2023-05-10T10:40:35;9.10;92.20
59973;DHT22;55298;-36.624;-64.282;2023-05-10T10:48:48;9.10;93.20
59973;DHT22;55298;-36.624;-64.282;2023-05-10T10:51:17;9.10;93.40
59973;DHT22;55298;-36.624;-64.282;2023-05-10T10:53:45;9.10;93.00
59973;DHT22;55298;-36.624;-64.282;2023-05-10T10:56:17;9.00;93.20
59973;DHT22;55298;-36.624;-64.282;2023-05-10T10:58:51;9.00;93.00
59973;DHT22;55298;-36.624;-64.282;2023-05-10T11:01:20;9.00;93.00
59973;DHT22;55298;-36.624;-64.282;2023-05-10T11:06:45;9.00;93.60
59973;DHT22;55298;-36.624;-64.282;2023-05-10T11:09:15;9.10;93.50
59973;DHT22;55298;-36.624;-64.282;2023-05-10T11:11:51;9.00;93.60
59973;DHT22;55298;-36.624;-64.282;2023-05-10T11:14:22;9.00;93.30
59973;DHT22;55298;-36.624;-64.282;2023-05-10T11:16:50;9.10;93.60
59973;DHT22;55298;-36.624;-64.282;2023-05-10T11:19:19;9.20;93.50
59973;DHT22;55298;-36.624;-64.282;2023-05-10T11:22:12;9.20;93.20
59973;DHT22;55298;-36.624;-64.282;2023-05-10T11:24:57;9.20;92.90
59973;DHT22;55298;-36.624;-64.282;2023-05-10T11:27:27;9.20;93.10
59973;DHT22;55298;-36.624;-64.282;2023-05-10T11:30:00;9.20;92.90
59973;DHT22;55298;-36.624;-64.282;2023-05-10T11:32:28;9.30;92.80
59973;DHT22;55298;-36.624;-64.282;2023-05-10T11:34:56;9.40;92.70
59973;DHT22;55298;-36.624;-64.282;2023-05-10T11:37:27;9.60;92.90
59973;DHT22;55298;-36.624;-64.282;2023-05-10T11:40:02;10.20;92.80
59973;DHT22;55298;-36.624;-64.282;2023-05-10T11:42:30;11.10;91.40
59973;DHT22;55298;-36.624;-64.282;2023-05-10T11:44:58;12.00;88.80
59973;DHT22;55298;-36.624;-64.282;2023-05-10T11:47:31;12.80;84.40
59973;DHT22;55298;-36.624;-64.282;2023-05-10T11:50:02;13.60;80.80
59973;DHT22;55298;-36.624;-64.282;2023-05-10T11:52:36;14.20;73.10
59973;DHT22;55298;-36.624;-64.282;2023-05-10T11:55:06;14.40;71.70
59973;DHT22;55298;-36.624;-64.282;2023-05-10T11:57:36;14.80;71.20
59973;DHT22;55298;-36.624;-64.282;2023-05-10T12:00:05;15.30;68.70
59973;DHT22;55298;-36.624;-64.282;2023-05-10T12:02:33;15.90;68.10
59973;DHT22;55298;-36.624;-64.282;2023-05-10T12:05:02;16.50;65.70
59973;DHT22;55298;-36.624;-64.282;2023-05-10T12:07:32;17.10;63.30
59973;DHT22;55298;-36.624;-64.282;2023-05-10T12:10:12;17.60;60.70
59973;DHT22;55298;-36.624;-64.282;2023-05-10T12:12:44;18.10;58.30
59973;DHT22;55298;-36.624;-64.282;2023-05-10T12:15:22;18.50;57.30
59973;DHT22;55298;-36.624;-64.282;2023-05-10T12:17:57;18.90;55.70
59973;DHT22;55298;-36.624;-64.282;2023-05-10T12:20:29;19.10;55.50
59973;DHT22;55298;-36.624;-64.282;2023-05-10T12:22:58;19.00;51.40
59973;DHT22;55298;-36.624;-64.282;2023-05-10T12:25:34;19.30;54.40
59973;DHT22;55298;-36.624;-64.282;2023-05-10T12:28:07;19.80;52.10
59973;DHT22;55298;-36.624;-64.282;2023-05-10T12:30:35;20.30;51.40
59973;DHT22;55298;-36.624;-64.282;2023-05-10T12:33:11;20.60;52.40
59973;DHT22;55298;-36.624;-64.282;2023-05-10T12:35:49;20.80;49.70
59973;DHT22;55298;-36.624;-64.282;2023-05-10T12:41:08;21.50;50.00
59973;DHT22;55298;-36.624;-64.282;2023-05-10T12:43:37;21.70;47.10
59973;DHT22;55298;-36.624;-64.282;2023-05-10T12:46:11;22.10;48.10
59973;DHT22;55298;-36.624;-64.282;2023-05-10T12:48:43;22.40;44.30
59973;DHT22;55298;-36.624;-64.282;2023-05-10T12:51:13;22.10;42.10
59973;DHT22;55298;-36.624;-64.282;2023-05-10T12:53:43;22.30;44.90
59973;DHT22;55298;-36.624;-64.282;2023-05-10T12:56:12;22.40;41.80
59973;DHT22;55298;-36.624;-64.282;2023-05-10T12:58:40;22.50;42.90
59973;DHT22;55298;-36.624;-64.282;2023-05-10T13:01:08;22.40;41.10
59973;DHT22;55298;-36.624;-64.282;2023-05-10T13:03:36;22.20;41.50
59973;DHT22;55298;-36.624;-64.282;2023-05-10T13:06:06;21.90;41.50
59973;DHT22;55298;-36.624;-64.282;2023-05-10T13:08:34;21.50;42.10
59973;DHT22;55298;-36.624;-64.282;2023-05-10T13:11:05;21.20;43.30
59973;DHT22;55298;-36.624;-64.282;2023-05-10T13:13:33;20.90;44.30
59973;DHT22;55298;-36.624;-64.282;2023-05-10T13:16:03;20.80;46.00
59973;DHT22;55298;-36.624;-64.282;2023-05-10T13:18:31;21.00;46.10
59973;DHT22;55298;-36.624;-64.282;2023-05-10T13:21:00;21.40;45.30
59973;DHT22;55298;-36.624;-64.282;2023-05-10T13:23:30;21.80;44.20
59973;DHT22;55298;-36.624;-64.282;2023-05-10T13:25:59;21.90;43.50
59973;DHT22;55298;-36.624;-64.282;2023-05-10T13:28:26;21.80;43.80
59973;DHT22;55298;-36.624;-64.282;2023-05-10T13:30:54;21.70;44.70
59973;DHT22;55298;-36.624;-64.282;2023-05-10T13:33:23;21.20;45.80
59973;DHT22;55298;-36.624;-64.282;2023-05-10T13:35:51;20.50;47.70
59973;DHT22;55298;-36.624;-64.282;2023-05-10T13:38:19;20.40;48.70
59973;DHT22;55298;-36.624;-64.282;2023-05-10T13:40:47;20.10;49.90
59973;DHT22;55298;-36.624;-64.282;2023-05-10T13:43:27;20.00;50.60
59973;DHT22;55298;-36.624;-64.282;2023-05-10T13:45:56;19.40;51.50
59973;DHT22;55298;-36.624;-64.282;2023-05-10T13:48:26;19.00;52.70
59973;DHT22;55298;-36.624;-64.282;2023-05-10T13:50:54;19.20;52.80
59973;DHT22;55298;-36.624;-64.282;2023-05-10T13:53:22;19.80;52.20
59973;DHT22;55298;-36.624;-64.282;2023-05-10T13:55:51;19.80;51.10
59973;DHT22;55298;-36.624;-64.282;2023-05-10T13:58:19;20.20;51.30
59973;DHT22;55298;-36.624;-64.282;2023-05-10T14:00:49;20.20;50.20
59973;DHT22;55298;-36.624;-64.282;2023-05-10T14:03:17;20.00;50.70
59973;DHT22;55298;-36.624;-64.282;2023-05-10T14:05:45;19.90;51.40
59973;DHT22;55298;-36.624;-64.282;2023-05-10T14:08:14;20.00;51.10
59973;DHT22;55298;-36.624;-64.282;2023-05-10T14:10:43;20.00;51.00
59973;DHT22;55298;-36.624;-64.282;2023-05-10T14:13:10;20.40;50.50
59973;DHT22;55298;-36.624;-64.282;2023-05-10T14:15:39;20.20;49.80
59973;DHT22;55298;-36.624;-64.282;2023-05-10T14:18:08;20.00;50.40
59973;DHT22;55298;-36.624;-64.282;2023-05-10T14:20:36;19.80;50.90
59973;DHT22;55298;-36.624;-64.282;2023-05-10T14:23:04;20.00;51.50
59973;DHT22;55298;-36.624;-64.282;2023-05-10T14:25:32;20.40;50.50
59973;DHT22;55298;-36.624;-64.282;2023-05-10T14:28:01;20.70;50.00
59973;DHT22;55298;-36.624;-64.282;2023-05-10T14:30:30;20.70;49.80
59973;DHT22;55298;-36.624;-64.282;2023-05-10T14:33:00;20.90;49.80
59973;DHT22;55298;-36.624;-64.282;2023-05-10T14:35:28;21.00;49.30
59973;DHT22;55298;-36.624;-64.282;2023-05-10T14:37:58;21.20;49.50
59973;DHT22;55298;-36.624;-64.282;2023-05-10T14:40:26;21.20;49.00
59973;DHT22;55298;-36.624;-64.282;2023-05-10T14:42:55;21.30;49.40
59973;DHT22;55298;-36.624;-64.282;2023-05-10T14:45:28;21.40;48.50
59973;DHT22;55298;-36.624;-64.282;2023-05-10T14:47:56;21.30;48.30
59973;DHT22;55298;-36.624;-64.282;2023-05-10T14:50:25;20.90;49.90
59973;DHT22;55298;-36.624;-64.282;2023-05-10T14:52:54;20.10;49.90
59973;DHT22;55298;-36.624;-64.282;2023-05-10T14:55:22;19.70;51.80
59973;DHT22;55298;-36.624;-64.282;2023-05-10T14:57:50;19.10;53.50
59973;DHT22;55298;-36.624;-64.282;2023-05-10T15:00:19;18.80;54.90
59973;DHT22;55298;-36.624;-64.282;2023-05-10T15:02:47;18.40;55.30
59973;DHT22;55298;-36.624;-64.282;2023-05-10T15:05:16;18.10;56.70
59973;DHT22;55298;-36.624;-64.282;2023-05-10T15:07:44;17.80;56.20
59973;DHT22;55298;-36.624;-64.282;2023-05-10T15:10:13;17.60;57.00
59973;DHT22;55298;-36.624;-64.282;2023-05-10T15:12:41;17.50;57.70
59973;DHT22;55298;-36.624;-64.282;2023-05-10T15:15:10;17.70;57.50
59973;DHT22;55298;-36.624;-64.282;2023-05-10T15:17:40;17.60;56.50
59973;DHT22;55298;-36.624;-64.282;2023-05-10T15:20:09;17.50;57.40
59973;DHT22;55298;-36.624;-64.282;2023-05-10T15:22:37;17.40;57.40
59973;DHT22;55298;-36.624;-64.282;2023-05-10T15:25:05;17.30;58.20
59973;DHT22;55298;-36.624;-64.282;2023-05-10T15:27:34;17.30;58.60